sim
Sign-in with your pilot id or email,
or register
Callsign
Passwort

Schedule Details

Flight Number: RYR7601 (2)
Departure: Vilnius International Airport (EYVI) at 09:40
Arrival: Bremen Airport (EDDW) at 11:40
Route: Ryanair Passenger Schedule. Enter filed route here before submitting Pirep.

Weather Information
Getting current METAR information for EYVI 101850Z 14003KT 9999 -RA BKN049 BKN100 20/17 Q1011 NOSIG
Getting current METAR information for EDDW 101850Z 30006KT 9999 FEW027 14/11 Q1016 NOSIG

Schedule Frequency

Route Map